Terminal Aerodrome Forecast
Issued by NWS

Home | Current Version | Previous Version | Text Only | Print | Product List | Glossary On
Versions: 1 2 3 4 5 6 7 8 9 10 11 12 13 14 15 16
000
FTUS44 KJAN 271700
TAFHKS
TAF
KHKS 271733Z 2718/2818 15009KT P6SM VCSH OVC006
     FM280200 16009KT 3SM RA VCTS OVC005CB
     FM280600 17010KT 2SM RA BR VCTS OVC004CB
     FM281000 32008KT 4SM -RA BR OVC007=

USA.gov is the U.S. government's official web portal to all federal, state and local government web resources and services.